Time;durP1;ratioP1;P1;durP2;ratioP2;P2;SDS_P1;SDS_P2;PMS_P1;PMS_P2;Temp;Humidity;BMP_temperature;BMP_pressure;BME280_temperature;BME280_humidity;BME280_pressure;Samples;Min_cycle;Max_cycle;Signal;HPM_P1;HPM_P2
2022/05/09 00:00:18;;;;;;;4.10;3.30;;;;;;;;;;5028409;28;20209;-55
2022/05/09 00:02:44;;;;;;;3.80;3.50;;;;;;;;;;5052360;28;20607;-53
2022/05/09 00:05:13;;;;;;;6.47;3.53;;;;;;;;;;5028878;28;20643;-54
2022/05/09 00:07:39;;;;;;;4.07;3.77;;;;;;;;;;5053976;28;20197;-53
2022/05/09 00:10:13;;;;;;;5.73;3.47;;;;;;;;;;5053113;28;20181;-54
2022/05/09 00:12:41;;;;;;;4.00;3.53;;;;;;;;;;5049899;28;20238;-54
2022/05/09 00:15:08;;;;;;;3.93;3.63;;;;;;;;;;5027968;28;20698;-56
2022/05/09 00:17:34;;;;;;;4.50;3.60;;;;;;;;;;5056736;28;20273;-54
2022/05/09 00:20:00;;;;;;;3.67;3.27;;;;;;;;;;5044510;28;20180;-54
2022/05/09 00:22:26;;;;;;;3.87;3.53;;;;;;;;;;5057463;28;20272;-55
2022/05/09 00:24:52;;;;;;;3.83;3.43;;;;;;;;;;5051435;28;20556;-55
2022/05/09 00:27:20;;;;;;;4.30;3.50;;;;;;;;;;5054676;28;20207;-54
2022/05/09 00:29:46;;;;;;;4.20;3.77;;;;;;;;;;5030223;28;20207;-55
2022/05/09 00:32:12;;;;;;;5.67;3.80;;;;;;;;;;5058500;28;20177;-54
2022/05/09 00:34:38;;;;;;;4.30;4.00;;;;;;;;;;5035350;28;20200;-55
2022/05/09 00:37:05;;;;;;;3.77;3.47;;;;;;;;;;5045495;28;20180;-55
2022/05/09 00:39:33;;;;;;;4.20;3.67;;;;;;;;;;5056919;28;20172;-55
2022/05/09 00:42:10;;;;;;;5.57;3.97;;;;;;;;;;5049904;28;20200;-54
2022/05/09 00:44:36;;;;;;;3.90;3.60;;;;;;;;;;5054846;28;20233;-55
2022/05/09 00:47:06;;;;;;;3.67;3.37;;;;;;;;;;5040684;28;20195;-54
2022/05/09 00:49:35;;;;;;;4.10;3.80;;;;;;;;;;5039697;28;20288;-54
2022/05/09 00:52:07;;;;;;;5.37;3.90;;;;;;;;;;5046054;28;20209;-54
2022/05/09 00:54:38;;;;;;;3.83;3.40;;;;;;;;;;5036605;28;20246;-54
2022/05/09 00:57:10;;;;;;;3.70;3.40;;;;;;;;;;5045790;28;20207;-55
2022/05/09 00:59:36;;;;;;;5.20;3.70;;;;;;;;;;5056566;28;20188;-55
2022/05/09 01:02:03;;;;;;;3.67;3.37;;;;;;;;;;5058748;28;20194;-55
2022/05/09 01:04:30;;;;;;;4.50;4.00;;;;;;;;;;5049164;28;20743;-53
2022/05/09 01:06:57;;;;;;;3.83;3.53;;;;;;;;;;5045884;28;20187;-55
2022/05/09 01:09:26;;;;;;;4.83;3.50;;;;;;;;;;5049354;28;20233;-55
2022/05/09 01:11:52;;;;;;;3.37;3.07;;;;;;;;;;5037910;28;20672;-55
2022/05/09 01:14:20;;;;;;;4.97;3.70;;;;;;;;;;5051778;28;20624;-54
2022/05/09 01:16:47;;;;;;;3.20;2.90;;;;;;;;;;5042769;28;20181;-54
2022/05/09 01:19:27;;;;;;;3.97;3.57;;;;;;;;;;5055114;28;20730;-55
2022/05/09 01:21:53;;;;;;;4.97;3.43;;;;;;;;;;5064380;28;20245;-55
2022/05/09 01:24:21;;;;;;;4.33;3.93;;;;;;;;;;5037174;28;20444;-54
2022/05/09 01:26:47;;;;;;;3.87;3.57;;;;;;;;;;5062764;28;20203;-55
2022/05/09 01:29:37;;;;;;;4.73;4.10;;;;;;;;;;5054684;28;20654;-53
2022/05/09 01:32:03;;;;;;;3.93;3.53;;;;;;;;;;5026256;28;20193;-55
2022/05/09 01:34:31;;;;;;;3.90;3.60;;;;;;;;;;5048460;28;20205;-54
2022/05/09 01:37:00;;;;;;;4.57;3.60;;;;;;;;;;5041801;28;20185;-54
2022/05/09 01:39:26;;;;;;;5.67;4.17;;;;;;;;;;5031284;28;20185;-54
2022/05/09 01:41:52;;;;;;;4.20;3.43;;;;;;;;;;5048226;28;20288;-54
2022/05/09 01:44:21;;;;;;;4.83;4.33;;;;;;;;;;5059808;28;20307;-54
2022/05/09 01:49:34;;;;;;;4.80;3.97;;;;;;;;;;5058848;28;20338;-54
2022/05/09 01:52:06;;;;;;;4.37;4.00;;;;;;;;;;5047511;28;20252;-54
2022/05/09 01:54:32;;;;;;;7.13;4.07;;;;;;;;;;5051417;28;20259;-54
2022/05/09 01:56:59;;;;;;;4.87;3.67;;;;;;;;;;5053301;28;20521;-55
2022/05/09 01:59:25;;;;;;;5.73;4.27;;;;;;;;;;5033356;28;20195;-55
2022/05/09 02:02:03;;;;;;;4.40;4.00;;;;;;;;;;5066093;28;20161;-54
2022/05/09 02:04:30;;;;;;;4.70;4.00;;;;;;;;;;5065412;28;20180;-54
2022/05/09 02:06:57;;;;;;;3.60;3.30;;;;;;;;;;5038614;28;20181;-54
2022/05/09 02:09:25;;;;;;;4.13;3.60;;;;;;;;;;5051723;28;20623;-54
2022/05/09 02:11:52;;;;;;;4.23;3.80;;;;;;;;;;5048846;28;20628;-54
2022/05/09 02:14:18;;;;;;;4.50;3.43;;;;;;;;;;5055190;28;20204;-56
2022/05/09 02:16:44;;;;;;;4.97;3.97;;;;;;;;;;5052510;28;20173;-54
2022/05/09 02:19:10;;;;;;;4.93;4.00;;;;;;;;;;5056756;28;20173;-54
2022/05/09 02:21:37;;;;;;;4.57;3.80;;;;;;;;;;5029292;28;20180;-53
2022/05/09 02:24:03;;;;;;;4.03;3.73;;;;;;;;;;5045143;28;20654;-54
2022/05/09 02:26:29;;;;;;;5.23;3.90;;;;;;;;;;5064121;28;20176;-55
2022/05/09 02:28:56;;;;;;;4.57;4.10;;;;;;;;;;5048149;28;20651;-54
2022/05/09 02:31:23;;;;;;;6.00;3.20;;;;;;;;;;5036608;28;20192;-53
2022/05/09 02:33:49;;;;;;;4.03;3.73;;;;;;;;;;5041345;28;20281;-54
2022/05/09 02:36:15;;;;;;;4.80;4.30;;;;;;;;;;5032112;28;20547;-54
2022/05/09 02:38:42;;;;;;;3.90;3.40;;;;;;;;;;5029744;28;20189;-54
2022/05/09 02:41:08;;;;;;;5.53;4.20;;;;;;;;;;5050162;28;20199;-54
2022/05/09 02:43:34;;;;;;;4.63;4.23;;;;;;;;;;5050483;28;20281;-53
2022/05/09 02:46:03;;;;;;;4.20;3.80;;;;;;;;;;5060436;28;20200;-54
2022/05/09 02:48:35;;;;;;;6.60;3.80;;;;;;;;;;5048013;28;20227;-55
2022/05/09 02:51:01;;;;;;;5.57;3.83;;;;;;;;;;5056103;28;20260;-54
2022/05/09 02:53:27;;;;;;;4.00;3.60;;;;;;;;;;5039672;28;20176;-54
2022/05/09 02:55:53;;;;;;;6.13;3.80;;;;;;;;;;5031285;28;20653;-55
2022/05/09 02:58:26;;;;;;;5.93;4.23;;;;;;;;;;5049056;28;20296;-54
2022/05/09 03:00:52;;;;;;;4.00;3.70;;;;;;;;;;5051149;28;20676;-54
2022/05/09 03:06:03;;;;;;;4.33;3.93;;;;;;;;;;5061502;28;20203;-54
2022/05/09 03:08:29;;;;;;;5.37;3.37;;;;;;;;;;5042826;28;20937;-54
2022/05/09 03:11:01;;;;;;;3.70;3.40;;;;;;;;;;5055124;28;20251;-55
2022/05/09 03:13:32;;;;;;;3.87;3.50;;;;;;;;;;5047991;28;20230;-55
2022/05/09 03:15:58;;;;;;;5.10;4.07;;;;;;;;;;5051721;28;20177;-54
2022/05/09 03:18:26;;;;;;;6.77;6.17;;;;;;;;;;5055648;28;20180;-55
2022/05/09 03:20:52;;;;;;;7.33;4.00;;;;;;;;;;5029674;28;20636;-54
2022/05/09 03:23:18;;;;;;;4.13;3.50;;;;;;;;;;5054446;28;20684;-55
2022/05/09 03:25:44;;;;;;;4.70;3.60;;;;;;;;;;5052896;28;20196;-54
2022/05/09 03:28:12;;;;;;;4.37;3.97;;;;;;;;;;5063114;28;20511;-55
2022/05/09 03:30:39;;;;;;;4.47;4.07;;;;;;;;;;5059832;28;20181;-55
2022/05/09 03:33:06;;;;;;;8.23;7.43;;;;;;;;;;5061253;28;20664;-54
2022/05/09 03:35:33;;;;;;;3.90;3.60;;;;;;;;;;5047760;28;20244;-54
2022/05/09 03:37:59;;;;;;;4.83;3.67;;;;;;;;;;5049036;28;20184;-54
2022/05/09 03:40:25;;;;;;;4.50;4.20;;;;;;;;;;5064681;28;20291;-53
2022/05/09 03:42:51;;;;;;;4.60;3.87;;;;;;;;;;5035901;28;20358;-55
2022/05/09 03:45:17;;;;;;;5.50;5.03;;;;;;;;;;5039008;28;20173;-54
2022/05/09 03:47:43;;;;;;;4.27;3.87;;;;;;;;;;5052691;28;20211;-54
2022/05/09 03:50:11;;;;;;;5.60;3.87;;;;;;;;;;5047761;28;20180;-56
2022/05/09 03:52:37;;;;;;;3.47;3.17;;;;;;;;;;5050137;28;20180;-55
2022/05/09 03:55:04;;;;;;;4.90;4.17;;;;;;;;;;5057266;28;20662;-54
2022/05/09 03:57:30;;;;;;;4.03;3.60;;;;;;;;;;5046946;28;20182;-55
2022/05/09 04:00:02;;;;;;;4.33;3.90;;;;;;;;;;5050808;28;20177;-55
2022/05/09 04:02:28;;;;;;;5.10;4.10;;;;;;;;;;5049676;28;20173;-55
2022/05/09 04:04:54;;;;;;;7.10;3.70;;;;;;;;;;5046601;28;20473;-55
2022/05/09 04:07:20;;;;;;;8.20;7.47;;;;;;;;;;5053559;28;20195;-55
2022/05/09 04:09:46;;;;;;;5.77;5.27;;;;;;;;;;5063587;28;20188;-54
2022/05/09 04:12:13;;;;;;;5.50;4.03;;;;;;;;;;5046280;28;20580;-54
2022/05/09 04:17:24;;;;;;;5.60;4.10;;;;;;;;;;5051606;28;20188;-54
2022/05/09 04:19:50;;;;;;;5.30;3.70;;;;;;;;;;5049934;28;20180;-55
2022/05/09 04:22:17;;;;;;;5.30;4.30;;;;;;;;;;5028790;28;20695;-55
2022/05/09 04:24:43;;;;;;;4.10;3.73;;;;;;;;;;5042798;28;20192;-54
2022/05/09 04:27:09;;;;;;;7.67;6.97;;;;;;;;;;5043614;28;20646;-54
2022/05/09 04:29:35;;;;;;;7.07;6.40;;;;;;;;;;5052248;28;20177;-55
2022/05/09 04:32:01;;;;;;;4.10;3.80;;;;;;;;;;5058822;28;20184;-55
2022/05/09 04:34:27;;;;;;;5.13;4.73;;;;;;;;;;5048375;28;20208;-55
2022/05/09 04:36:54;;;;;;;4.53;3.77;;;;;;;;;;5064013;28;20173;-55
2022/05/09 04:39:23;;;;;;;4.30;3.60;;;;;;;;;;5057882;28;20685;-55
2022/05/09 04:41:50;;;;;;;4.23;3.90;;;;;;;;;;5039242;28;20196;-55
2022/05/09 04:44:16;;;;;;;3.67;3.37;;;;;;;;;;5060296;28;20307;-55
2022/05/09 04:46:45;;;;;;;6.90;3.67;;;;;;;;;;5054804;28;20256;-54
2022/05/09 04:49:11;;;;;;;5.83;4.57;;;;;;;;;;5054253;28;20588;-55
2022/05/09 04:51:37;;;;;;;5.20;3.20;;;;;;;;;;5059532;28;20345;-54
2022/05/09 04:54:04;;;;;;;8.67;3.80;;;;;;;;;;5058547;28;20200;-53
2022/05/09 04:56:30;;;;;;;4.40;3.90;;;;;;;;;;5038283;28;20631;-52
2022/05/09 04:58:56;;;;;;;5.20;3.50;;;;;;;;;;5028729;28;20229;-53
2022/05/09 05:01:22;;;;;;;6.23;4.00;;;;;;;;;;5032534;28;20612;-54
2022/05/09 05:03:48;;;;;;;4.67;3.37;;;;;;;;;;5052712;28;20184;-53
2022/05/09 05:06:14;;;;;;;5.63;3.67;;;;;;;;;;5051501;28;20805;-53
2022/05/09 05:08:41;;;;;;;5.77;3.57;;;;;;;;;;5032692;28;20176;-54
2022/05/09 05:11:07;;;;;;;3.87;3.00;;;;;;;;;;5059330;28;20646;-54
2022/05/09 05:13:33;;;;;;;4.67;4.07;;;;;;;;;;5042936;28;20672;-54
2022/05/09 05:16:00;;;;;;;5.63;4.00;;;;;;;;;;5036001;28;20591;-53
2022/05/09 05:18:26;;;;;;;3.90;3.50;;;;;;;;;;5049354;28;20574;-53
2022/05/09 05:20:53;;;;;;;5.70;3.40;;;;;;;;;;5052858;28;20469;-54
2022/05/09 05:23:20;;;;;;;4.83;4.47;;;;;;;;;;5034927;28;20216;-53
2022/05/09 05:25:46;;;;;;;7.50;3.70;;;;;;;;;;5039106;28;20181;-53
2022/05/09 05:28:13;;;;;;;5.27;4.87;;;;;;;;;;5068157;28;20595;-54
2022/05/09 05:30:39;;;;;;;4.20;3.77;;;;;;;;;;5062783;28;20173;-54
2022/05/09 05:33:06;;;;;;;4.60;3.63;;;;;;;;;;5032253;28;20177;-52
2022/05/09 05:35:32;;;;;;;4.23;3.83;;;;;;;;;;5052753;28;20195;-54
2022/05/09 05:37:59;;;;;;;6.00;3.90;;;;;;;;;;5020326;28;20219;-54
2022/05/09 05:40:25;;;;;;;3.97;3.47;;;;;;;;;;5046940;28;20644;-54
2022/05/09 05:42:55;;;;;;;4.93;3.93;;;;;;;;;;5052169;28;20681;-54
2022/05/09 05:45:23;;;;;;;6.60;3.80;;;;;;;;;;5030852;28;20191;-54
2022/05/09 05:47:49;;;;;;;3.90;3.50;;;;;;;;;;5051899;28;20602;-54
2022/05/09 05:50:17;;;;;;;6.07;3.93;;;;;;;;;;5044440;28;20181;-54
2022/05/09 05:52:43;;;;;;;4.60;4.07;;;;;;;;;;5050005;28;20271;-55
2022/05/09 05:55:09;;;;;;;4.87;3.67;;;;;;;;;;5055517;28;20662;-53
2022/05/09 05:57:38;;;;;;;3.77;3.40;;;;;;;;;;5049570;28;20195;-54
2022/05/09 06:00:11;;;;;;;4.20;3.47;;;;;;;;;;5048979;28;20177;-53
2022/05/09 06:02:38;;;;;;;5.57;3.57;;;;;;;;;;5032192;28;20612;-54
2022/05/09 06:05:05;;;;;;;4.60;4.20;;;;;;;;;;5066511;28;20661;-54
2022/05/09 06:07:31;;;;;;;4.53;4.10;;;;;;;;;;5057570;28;20181;-55
2022/05/09 06:09:57;;;;;;;4.93;3.70;;;;;;;;;;5059646;28;20192;-54
2022/05/09 06:12:24;;;;;;;4.93;3.70;;;;;;;;;;5060581;28;20171;-55
2022/05/09 06:17:37;;;;;;;4.30;3.67;;;;;;;;;;5048966;28;20168;-53
2022/05/09 06:20:11;;;;;;;4.00;3.63;;;;;;;;;;5029537;28;20172;-54
2022/05/09 06:22:38;;;;;;;3.77;3.47;;;;;;;;;;5055227;28;20610;-54
2022/05/09 06:25:05;;;;;;;3.70;3.40;;;;;;;;;;5062195;28;20213;-54
2022/05/09 06:27:34;;;;;;;4.40;4.00;;;;;;;;;;5051143;28;20230;-54
2022/05/09 06:30:01;;;;;;;7.40;5.07;;;;;;;;;;5059482;28;20340;-54
2022/05/09 06:32:27;;;;;;;4.57;3.83;;;;;;;;;;5059874;28;20227;-53
2022/05/09 06:34:53;;;;;;;4.00;3.60;;;;;;;;;;5065436;28;20199;-54
2022/05/09 06:37:20;;;;;;;4.10;3.80;;;;;;;;;;5061330;28;20631;-53
2022/05/09 06:39:46;;;;;;;3.17;2.93;;;;;;;;;;5037860;28;20741;-53
2022/05/09 06:42:12;;;;;;;4.90;4.40;;;;;;;;;;5045224;28;20320;-55
2022/05/09 06:44:38;;;;;;;5.57;3.47;;;;;;;;;;5054525;28;20573;-54
2022/05/09 06:47:05;;;;;;;4.57;3.60;;;;;;;;;;5048486;28;20165;-53
2022/05/09 06:49:37;;;;;;;5.73;3.20;;;;;;;;;;5057243;28;20187;-54
2022/05/09 06:52:04;;;;;;;3.73;3.43;;;;;;;;;;5048973;28;20882;-54
2022/05/09 06:54:30;;;;;;;3.53;3.23;;;;;;;;;;5029003;28;20193;-53
2022/05/09 06:56:56;;;;;;;4.27;3.80;;;;;;;;;;5033190;28;20616;-54
2022/05/09 06:59:22;;;;;;;4.47;3.80;;;;;;;;;;5059475;28;20184;-54
2022/05/09 07:01:50;;;;;;;3.60;3.30;;;;;;;;;;5058944;28;20177;-55
2022/05/09 07:04:16;;;;;;;3.80;3.50;;;;;;;;;;5065404;28;20180;-54
2022/05/09 07:06:42;;;;;;;4.53;3.90;;;;;;;;;;5035738;28;20201;-53
2022/05/09 07:09:10;;;;;;;4.40;4.00;;;;;;;;;;5029845;28;20651;-54
2022/05/09 07:11:40;;;;;;;3.77;3.40;;;;;;;;;;5040756;28;20180;-54
2022/05/09 07:14:07;;;;;;;6.27;4.00;;;;;;;;;;5036192;28;20228;-54
2022/05/09 07:16:33;;;;;;;4.83;3.87;;;;;;;;;;5047793;28;20565;-55
2022/05/09 07:18:59;;;;;;;5.27;4.27;;;;;;;;;;5046746;28;20177;-53
2022/05/09 07:21:26;;;;;;;5.40;4.13;;;;;;;;;;5047415;28;20170;-54
2022/05/09 07:23:53;;;;;;;4.53;3.83;;;;;;;;;;5043636;28;20279;-54
2022/05/09 07:26:19;;;;;;;4.53;4.10;;;;;;;;;;5048441;28;20251;-54
2022/05/09 07:28:45;;;;;;;4.07;3.60;;;;;;;;;;5060727;28;20280;-54
2022/05/09 07:31:12;;;;;;;3.70;3.40;;;;;;;;;;5052889;28;20173;-53
2022/05/09 07:33:38;;;;;;;3.87;3.47;;;;;;;;;;5050446;28;20191;-54
2022/05/09 07:36:05;;;;;;;4.53;3.67;;;;;;;;;;5028482;28;20177;-55
2022/05/09 07:38:32;;;;;;;5.73;3.63;;;;;;;;;;5055784;28;20164;-53
2022/05/09 07:40:58;;;;;;;4.28;3.60;;;;;;;;;;5054001;28;20721;-55
2022/05/09 07:43:26;;;;;;;3.93;3.53;;;;;;;;;;5047952;28;20948;-55
2022/05/09 07:45:54;;;;;;;5.03;3.27;;;;;;;;;;5035261;28;20267;-54
2022/05/09 07:48:20;;;;;;;4.33;3.10;;;;;;;;;;5027387;28;20741;-54
2022/05/09 07:50:47;;;;;;;4.30;3.10;;;;;;;;;;5028915;28;20489;-54
2022/05/09 07:53:19;;;;;;;4.27;3.10;;;;;;;;;;5031792;28;21031;-56
2022/05/09 07:55:45;;;;;;;5.13;3.53;;;;;;;;;;5053373;28;20273;-54
2022/05/09 07:58:14;;;;;;;4.57;3.97;;;;;;;;;;5048222;28;20176;-54
2022/05/09 08:00:41;;;;;;;6.43;4.07;;;;;;;;;;5040578;28;20175;-55
2022/05/09 08:03:07;;;;;;;5.20;3.50;;;;;;;;;;5044881;28;20195;-55
2022/05/09 08:05:34;;;;;;;3.77;3.47;;;;;;;;;;5051578;28;20287;-55
2022/05/09 08:08:01;;;;;;;3.90;3.47;;;;;;;;;;5049777;28;20674;-54
2022/05/09 08:10:28;;;;;;;5.90;3.90;;;;;;;;;;5049224;28;20725;-53
2022/05/09 08:12:54;;;;;;;5.47;3.93;;;;;;;;;;5039780;28;20180;-55
2022/05/09 08:15:21;;;;;;;7.17;4.07;;;;;;;;;;5034771;28;20547;-54
2022/05/09 08:17:49;;;;;;;4.40;3.70;;;;;;;;;;5030901;28;20625;-53
2022/05/09 08:20:16;;;;;;;5.57;3.77;;;;;;;;;;5029536;28;20895;-56
2022/05/09 08:22:42;;;;;;;4.10;3.67;;;;;;;;;;5049031;28;20252;-54
2022/05/09 08:25:08;;;;;;;5.43;3.67;;;;;;;;;;5058249;28;20172;-55
2022/05/09 08:27:36;;;;;;;7.13;4.50;;;;;;;;;;5031710;28;20180;-54
2022/05/09 08:30:03;;;;;;;6.80;5.00;;;;;;;;;;5029031;28;20262;-58
2022/05/09 08:32:34;;;;;;;5.57;3.33;;;;;;;;;;5029593;28;20325;-54
2022/05/09 08:35:00;;;;;;;5.57;4.33;;;;;;;;;;5048042;28;20196;-53
2022/05/09 08:37:35;;;;;;;4.33;3.33;;;;;;;;;;5036062;28;20536;-53
2022/05/09 08:40:01;;;;;;;8.10;3.60;;;;;;;;;;5036288;28;20188;-55
2022/05/09 08:42:36;;;;;;;3.73;3.43;;;;;;;;;;5047659;28;20647;-53
2022/05/09 08:45:12;;;;;;;5.63;4.00;;;;;;;;;;5045201;28;20314;-53
2022/05/09 08:47:51;;;;;;;5.50;3.20;;;;;;;;;;5028422;28;20231;-54
2022/05/09 08:50:24;;;;;;;4.17;3.43;;;;;;;;;;5053331;28;20239;-54
2022/05/09 08:53:05;;;;;;;6.17;3.70;;;;;;;;;;5047868;28;20189;-54
2022/05/09 08:55:35;;;;;;;5.53;4.00;;;;;;;;;;5037230;28;20197;-54
2022/05/09 08:58:14;;;;;;;5.20;4.00;;;;;;;;;;5057163;28;20176;-54
2022/05/09 09:00:40;;;;;;;4.57;3.37;;;;;;;;;;5029517;28;20237;-54
2022/05/09 09:03:23;;;;;;;3.87;3.50;;;;;;;;;;5023173;28;20249;-54
2022/05/09 09:05:50;;;;;;;4.87;4.07;;;;;;;;;;5023212;28;20178;-53
2022/05/09 09:08:37;;;;;;;5.10;4.20;;;;;;;;;;5039817;28;20281;-53
2022/05/09 09:11:03;;;;;;;6.87;3.90;;;;;;;;;;5034361;28;20618;-53
2022/05/09 09:13:45;;;;;;;4.03;3.60;;;;;;;;;;5035506;28;20184;-54
2022/05/09 09:16:20;;;;;;;5.10;4.20;;;;;;;;;;5030826;28;20271;-54
2022/05/09 09:18:59;;;;;;;7.83;4.30;;;;;;;;;;5048962;28;20884;-54
2022/05/09 09:21:36;;;;;;;4.73;3.77;;;;;;;;;;5051498;28;20192;-59
2022/05/09 09:24:21;;;;;;;5.53;4.60;;;;;;;;;;5045651;28;20181;-57
2022/05/09 09:26:56;;;;;;;5.63;4.30;;;;;;;;;;5029842;28;20676;-52
2022/05/09 09:29:30;;;;;;;6.17;4.00;;;;;;;;;;5049447;28;20254;-53
2022/05/09 09:32:00;;;;;;;5.73;3.97;;;;;;;;;;5055461;28;20180;-53
2022/05/09 09:34:45;;;;;;;6.50;4.57;;;;;;;;;;5032944;28;20528;-53
2022/05/09 09:37:14;;;;;;;5.13;4.57;;;;;;;;;;5052631;28;20655;-54
2022/05/09 09:39:41;;;;;;;5.97;4.40;;;;;;;;;;5034854;28;20181;-53
2022/05/09 09:42:07;;;;;;;7.60;5.20;;;;;;;;;;5057243;28;20650;-54
2022/05/09 09:44:34;;;;;;;5.73;4.60;;;;;;;;;;5067160;28;20603;-54
2022/05/09 09:47:09;;;;;;;9.17;8.27;;;;;;;;;;5054829;28;20544;-54
2022/05/09 09:49:38;;;;;;;8.03;4.97;;;;;;;;;;5030016;28;20200;-54
2022/05/09 09:52:13;;;;;;;7.17;5.00;;;;;;;;;;5042876;28;20204;-54
2022/05/09 09:54:39;;;;;;;6.50;5.10;;;;;;;;;;5054884;28;20204;-54
2022/05/09 09:57:17;;;;;;;5.90;5.30;;;;;;;;;;5037764;28;20276;-54
2022/05/09 09:59:44;;;;;;;8.40;5.50;;;;;;;;;;5049336;28;20169;-53
2022/05/09 10:02:32;;;;;;;5.60;4.90;;;;;;;;;;5055840;28;20222;-54
2022/05/09 10:05:11;;;;;;;5.43;4.90;;;;;;;;;;5057880;28;20576;-54
2022/05/09 10:07:39;;;;;;;8.73;5.93;;;;;;;;;;5040600;28;20192;-54
2022/05/09 10:10:13;;;;;;;9.53;8.63;;;;;;;;;;5062739;28;20500;-54
2022/05/09 10:12:41;;;;;;;7.50;6.03;;;;;;;;;;5037566;28;20179;-54
2022/05/09 10:15:28;;;;;;;5.67;4.90;;;;;;;;;;5061121;28;20200;-54
2022/05/09 10:17:56;;;;;;;7.30;5.23;;;;;;;;;;5055300;28;20177;-54
2022/05/09 10:20:28;;;;;;;7.27;5.60;;;;;;;;;;5063152;28;20180;-54
2022/05/09 10:26:01;;;;;;;9.67;5.23;;;;;;;;;;5065549;28;20184;-55
2022/05/09 10:28:30;;;;;;;6.10;5.40;;;;;;;;;;5051142;28;20186;-55
2022/05/09 10:31:01;;;;;;;6.33;5.73;;;;;;;;;;5044241;28;20199;-54
2022/05/09 10:33:46;;;;;;;7.63;5.80;;;;;;;;;;5035795;28;20264;-54
2022/05/09 10:36:18;;;;;;;7.07;5.67;;;;;;;;;;5049856;28;20187;-54
2022/05/09 10:38:54;;;;;;;6.50;5.60;;;;;;;;;;5043122;28;20519;-53
2022/05/09 10:41:32;;;;;;;6.03;5.43;;;;;;;;;;5030475;28;20202;-54
2022/05/09 10:43:58;;;;;;;9.27;5.53;;;;;;;;;;5047559;28;20646;-54
2022/05/09 10:46:30;;;;;;;6.03;5.50;;;;;;;;;;5047672;28;20179;-55
2022/05/09 10:49:06;;;;;;;9.07;6.37;;;;;;;;;;5029282;28;20179;-54
2022/05/09 10:51:39;;;;;;;5.73;5.23;;;;;;;;;;5050332;28;20275;-54
2022/05/09 10:54:09;;;;;;;5.93;5.37;;;;;;;;;;5049850;28;20375;-54
2022/05/09 10:56:51;;;;;;;6.80;6.13;;;;;;;;;;5030471;28;20163;-54
2022/05/09 10:59:20;;;;;;;8.50;6.00;;;;;;;;;;5028101;28;20728;-56
2022/05/09 11:01:50;;;;;;;6.93;5.30;;;;;;;;;;5056991;28;20185;-54
2022/05/09 11:04:17;;;;;;;5.87;5.27;;;;;;;;;;5046767;28;20226;-55
2022/05/09 11:06:52;;;;;;;7.63;5.27;;;;;;;;;;5054363;28;20598;-55
2022/05/09 11:09:24;;;;;;;6.85;6.30;;;;;;;;;;5035162;28;20534;-55
2022/05/09 11:11:56;;;;;;;7.17;5.80;;;;;;;;;;5052380;28;20649;-56
2022/05/09 11:14:26;;;;;;;6.00;5.47;;;;;;;;;;5034474;28;20264;-54
2022/05/09 11:16:56;;;;;;;6.27;5.67;;;;;;;;;;5031127;28;20176;-55
2022/05/09 11:19:22;;;;;;;6.20;5.60;;;;;;;;;;5047731;28;20173;-54
2022/05/09 11:22:20;;;;;;;6.40;5.80;;;;;;;;;;5054076;28;20185;-56
2022/05/09 11:25:10;;;;;;;6.10;5.50;;;;;;;;;;5023714;28;20701;-55
2022/05/09 11:27:58;;;;;;;7.90;6.30;;;;;;;;;;5002722;28;20204;-55
2022/05/09 11:30:43;;;;;;;5.53;5.03;;;;;;;;;;5049907;28;20168;-55
2022/05/09 11:33:30;;;;;;;6.33;5.73;;;;;;;;;;5055895;28;20184;-55
2022/05/09 11:36:01;;;;;;;5.43;5.03;;;;;;;;;;5047703;28;20193;-54
2022/05/09 11:38:54;;;;;;;5.73;5.23;;;;;;;;;;5029265;28;20942;-54
2022/05/09 11:41:32;;;;;;;6.03;5.53;;;;;;;;;;5023009;28;20217;-55
2022/05/09 11:44:04;;;;;;;8.23;6.03;;;;;;;;;;5053451;28;20216;-56
2022/05/09 11:46:46;;;;;;;6.77;5.67;;;;;;;;;;5059033;28;20173;-55
2022/05/09 11:49:34;;;;;;;6.30;5.80;;;;;;;;;;5055920;28;20603;-56
2022/05/09 11:52:06;;;;;;;6.70;6.13;;;;;;;;;;5046808;28;20174;-56
2022/05/09 11:54:41;;;;;;;7.07;5.80;;;;;;;;;;5048037;28;20206;-54
2022/05/09 11:57:12;;;;;;;7.97;7.38;;;;;;;;;;5047173;28;20448;-55
2022/05/09 11:59:48;;;;;;;17.17;16.03;;;;;;;;;;5028730;28;20699;-55
2022/05/09 12:02:14;;;;;;;10.63;9.93;;;;;;;;;;5047292;28;20174;-55
2022/05/09 12:04:41;;;;;;;6.40;5.80;;;;;;;;;;5047055;28;20255;-55
2022/05/09 12:07:26;;;;;;;6.07;5.57;;;;;;;;;;5060731;28;20547;-55
2022/05/09 12:09:55;;;;;;;6.43;5.87;;;;;;;;;;5052206;28;20264;-55
2022/05/09 12:12:41;;;;;;;5.80;5.30;;;;;;;;;;5019391;28;20186;-55
2022/05/09 12:15:12;;;;;;;7.03;5.40;;;;;;;;;;5060881;28;20205;-55
2022/05/09 12:17:41;;;;;;;5.97;5.47;;;;;;;;;;5051690;28;20520;-55
2022/05/09 12:20:11;;;;;;;8.47;7.87;;;;;;;;;;5053065;28;20586;-55
2022/05/09 12:22:44;;;;;;;6.10;5.57;;;;;;;;;;5031717;28;20227;-55
2022/05/09 12:25:30;;;;;;;6.60;6.03;;;;;;;;;;5047782;28;20256;-56
2022/05/09 12:28:03;;;;;;;6.33;5.70;;;;;;;;;;5037725;28;20209;-55
2022/05/09 12:30:32;;;;;;;7.27;5.90;;;;;;;;;;5045280;28;20518;-57
2022/05/09 12:32:58;;;;;;;5.93;5.30;;;;;;;;;;5046904;28;20524;-57
2022/05/09 12:35:24;;;;;;;5.87;5.37;;;;;;;;;;5053250;28;20697;-55
2022/05/09 12:37:51;;;;;;;6.13;5.50;;;;;;;;;;5045318;28;20865;-56
2022/05/09 12:40:22;;;;;;;6.97;6.27;;;;;;;;;;5047928;28;20176;-56
2022/05/09 12:42:50;;;;;;;8.00;5.20;;;;;;;;;;5029785;28;20218;-55
2022/05/09 12:45:17;;;;;;;5.40;4.90;;;;;;;;;;5034706;28;20250;-55
2022/05/09 12:47:44;;;;;;;5.67;5.17;;;;;;;;;;5047640;28;20188;-55
2022/05/09 12:50:12;;;;;;;5.57;4.70;;;;;;;;;;5033377;28;20185;-55
2022/05/09 12:52:41;;;;;;;5.83;5.23;;;;;;;;;;5057056;28;20186;-54
2022/05/09 12:57:52;;;;;;;6.27;5.67;;;;;;;;;;5051570;28;20246;-54
2022/05/09 13:00:22;;;;;;;5.20;4.80;;;;;;;;;;5045967;28;20635;-55
2022/05/09 13:02:49;;;;;;;5.00;4.53;;;;;;;;;;5034312;28;20275;-55
2022/05/09 13:05:17;;;;;;;6.63;5.37;;;;;;;;;;5047296;28;20586;-56
2022/05/09 13:08:00;;;;;;;5.03;4.63;;;;;;;;;;5031934;28;20183;-56
2022/05/09 13:10:42;;;;;;;5.00;4.60;;;;;;;;;;5060008;28;20213;-55
2022/05/09 13:13:09;;;;;;;5.40;4.60;;;;;;;;;;5043404;28;20180;-55
2022/05/09 13:15:43;;;;;;;6.90;4.30;;;;;;;;;;5032288;28;20246;-59
2022/05/09 13:18:11;;;;;;;6.03;5.23;;;;;;;;;;5048446;28;20533;-54
2022/05/09 13:20:47;;;;;;;5.37;4.97;;;;;;;;;;5059029;28;20462;-53
2022/05/09 13:23:13;;;;;;;6.17;5.57;;;;;;;;;;5066345;28;20562;-56
2022/05/09 13:25:50;;;;;;;6.87;5.70;;;;;;;;;;5055995;28;20204;-56
2022/05/09 13:28:20;;;;;;;5.87;5.27;;;;;;;;;;5030045;28;20176;-55
2022/05/09 13:30:51;;;;;;;5.43;4.93;;;;;;;;;;5049209;28;20254;-56
2022/05/09 13:33:24;;;;;;;7.07;6.27;;;;;;;;;;5052321;28;20189;-57
2022/05/09 13:36:08;;;;;;;6.60;5.03;;;;;;;;;;5035134;28;20678;-56
2022/05/09 13:38:39;;;;;;;7.93;5.00;;;;;;;;;;5031755;28;20682;-55
2022/05/09 13:41:11;;;;;;;7.37;5.20;;;;;;;;;;5032481;28;20260;-57
2022/05/09 13:43:39;;;;;;;8.70;4.80;;;;;;;;;;5038183;28;20751;-56
2022/05/09 13:46:11;;;;;;;5.23;4.73;;;;;;;;;;5036709;28;20253;-57
2022/05/09 13:48:37;;;;;;;5.90;4.70;;;;;;;;;;5029835;28;20596;-55
2022/05/09 13:51:05;;;;;;;5.60;5.20;;;;;;;;;;5060547;28;20189;-56
2022/05/09 13:53:33;;;;;;;6.13;4.50;;;;;;;;;;5042583;28;20191;-55
2022/05/09 13:56:00;;;;;;;5.13;4.63;;;;;;;;;;5049259;28;20200;-56
2022/05/09 13:58:31;;;;;;;5.23;4.73;;;;;;;;;;5039924;28;20176;-56
2022/05/09 14:00:58;;;;;;;4.80;4.37;;;;;;;;;;5049421;28;20619;-56
2022/05/09 14:03:36;;;;;;;6.03;5.47;;;;;;;;;;5047931;28;20669;-57
2022/05/09 14:06:09;;;;;;;5.27;4.80;;;;;;;;;;5036215;28;20198;-56
2022/05/09 14:08:38;;;;;;;5.70;5.13;;;;;;;;;;5029958;28;20215;-56
2022/05/09 14:11:10;;;;;;;6.13;5.67;;;;;;;;;;5049358;28;20203;-56
2022/05/09 14:13:49;;;;;;;4.67;4.33;;;;;;;;;;5062070;28;20735;-56
2022/05/09 14:16:25;;;;;;;6.70;4.93;;;;;;;;;;5046486;28;20204;-55
2022/05/09 14:19:09;;;;;;;5.60;5.10;;;;;;;;;;5030388;28;20220;-57
2022/05/09 14:21:57;;;;;;;6.13;5.67;;;;;;;;;;5065967;28;20163;-56
2022/05/09 14:24:35;;;;;;;6.27;5.77;;;;;;;;;;5044347;28;20188;-55
2022/05/09 14:29:50;;;;;;;5.50;5.00;;;;;;;;;;5048588;28;20680;-54
2022/05/09 14:32:36;;;;;;;5.30;4.90;;;;;;;;;;5048053;28;20918;-55
2022/05/09 14:35:02;;;;;;;5.00;4.60;;;;;;;;;;5033244;28;20201;-55
2022/05/09 14:37:32;;;;;;;7.83;6.53;;;;;;;;;;5032046;28;20299;-55
2022/05/09 14:40:00;;;;;;;6.80;6.23;;;;;;;;;;5032910;28;20181;-55
2022/05/09 14:42:33;;;;;;;5.70;5.30;;;;;;;;;;5044194;28;20329;-55
2022/05/09 14:45:03;;;;;;;6.00;5.50;;;;;;;;;;5033784;28;20255;-56
2022/05/09 14:47:35;;;;;;;6.23;5.63;;;;;;;;;;5047845;28;20276;-54
2022/05/09 14:50:07;;;;;;;5.40;4.90;;;;;;;;;;5030488;28;20691;-56
2022/05/09 14:52:39;;;;;;;5.67;4.97;;;;;;;;;;5047048;28;20590;-56
2022/05/09 14:58:00;;;;;;;10.70;6.73;;;;;;;;;;5048157;28;20764;-54
2022/05/09 15:00:28;;;;;;;8.40;5.77;;;;;;;;;;5045717;28;20699;-55
2022/05/09 15:03:05;;;;;;;11.30;5.97;;;;;;;;;;5053571;28;20683;-57
2022/05/09 15:05:35;;;;;;;6.73;5.77;;;;;;;;;;5048499;28;20191;-56
2022/05/09 15:08:02;;;;;;;9.93;6.10;;;;;;;;;;5031590;28;20177;-57
2022/05/09 15:10:30;;;;;;;8.97;5.83;;;;;;;;;;5038896;28;20184;-54
2022/05/09 15:12:59;;;;;;;27.63;8.13;;;;;;;;;;5050846;28;20199;-56
2022/05/09 15:15:26;;;;;;;13.20;7.27;;;;;;;;;;5029332;28;20295;-56
2022/05/09 15:17:52;;;;;;;13.10;6.53;;;;;;;;;;5049093;28;20212;-56
2022/05/09 15:20:19;;;;;;;7.77;5.73;;;;;;;;;;5029580;28;20208;-55